Cat Bi International Airport
VVCI : now visible

Airfield :











YOU CAN JOIN US ON...

 
LOGIN :

Register | Disclaimer

   EN    FR    IT 

 









Legend :    VFR   Marginal VFR   IFR   Intensive IFR   Very Intensive IFR
Visi :
Ceiling :
>= 8 km
>= 3000ft
5 to 8 km
1000 to 3000 ft
1500m to 5 km
500 to 1000 ft
800 to 1500m
200 to 500 ft
< 800m
< 200 ft
Symbols :   Thunderstorms  Fog  Heavy snow  Heavy precipitations  Wind > 20 kt






- Airport Elevation : 6 ft
- IATA code : HPH


VVCI - Cat Bi International

CURRENT METAR :
  • 020330Z 01004KT 330V060 9999 OVC033 17/10 Q1021 NOSIG

EXPIRED METARs :
  • 020300Z 36005KT 310V050 9999 BKN034 16/09 Q1022 NOSIG
  • 020230Z 35005KT 310V020 9999 BKN033 BKN048 16/09 Q1022 NOSIG
  • 020200Z 01005KT 320V070 9999 BKN029 OVC036 15/09 Q1022 NOSIG
  • 020130Z 36004KT 320V030 9999 BKN029 OVC037 14/09 Q1022 NOSIG
  • 020100Z 03006KT 010V070 9999 OVC031 14/08 Q1021 NOSIG

TAF TAF VVCI
Valid from the 02 at 00:00 until the 03 at 00:00 UTC


012300Z 0200/0224 03008KT 9999 SCT027 BKN040



MET'MAP, your aeronautical weather chart ! - Copyright ORBIFLY December 2007 - Disclaimer

ORBIFLY MET'MAP TEAM :

Programming & Development : Alexandra Zaïnal
Original concept : Baudouin d'Aumeries
Technical & hardware support : Manuel Goepfert
Assistance : Marc-Olivier Méhu




SOURCES & CREDITS :

   NOAA       Earth
Advisory